createdAt,value
2022-12-29T00:00:00.572Z,1006.30
2022-12-29T00:01:00.769Z,1006.25
2022-12-29T00:02:00.908Z,1006.20
2022-12-29T00:03:01.173Z,1006.21
2022-12-29T00:04:01.250Z,1006.16
2022-12-29T00:05:01.417Z,1006.17
2022-12-29T00:06:01.598Z,1006.15
2022-12-29T00:07:01.845Z,1006.16
2022-12-29T00:08:01.966Z,1006.14
2022-12-29T00:09:02.106Z,1006.12
2022-12-29T00:10:02.360Z,1006.08
2022-12-29T00:11:02.472Z,1006.11
2022-12-29T00:12:02.675Z,1006.09
2022-12-29T00:13:02.823Z,1006.12
2022-12-29T00:14:03.014Z,1006.02
2022-12-29T00:15:03.196Z,1006.12
2022-12-29T00:16:03.434Z,1006.06
2022-12-29T00:17:03.615Z,1006.07
2022-12-29T00:18:03.768Z,1006.06
2022-12-29T00:19:03.913Z,1006.04
2022-12-29T00:20:04.157Z,1006.01
2022-12-29T00:21:04.281Z,1006.09
2022-12-29T00:22:04.470Z,1006.00
2022-12-29T00:23:04.663Z,1006.02
2022-12-29T00:24:04.803Z,1006.09
2022-12-29T00:25:04.977Z,1005.96
2022-12-29T00:26:05.157Z,1005.95
2022-12-29T00:27:05.334Z,1005.95
2022-12-29T00:28:07.640Z,1005.92
2022-12-29T00:29:05.701Z,1005.90
2022-12-29T00:30:05.907Z,1005.92
2022-12-29T00:31:06.119Z,1005.79
2022-12-29T00:32:06.231Z,1005.79
2022-12-29T00:33:06.419Z,1005.81
2022-12-29T00:34:06.601Z,1005.86
2022-12-29T00:35:06.781Z,1005.84
2022-12-29T00:36:06.951Z,1005.83
2022-12-29T00:37:07.112Z,1005.80
2022-12-29T00:38:07.315Z,1005.87
2022-12-29T00:39:07.462Z,1005.88
2022-12-29T00:40:07.655Z,1005.83
2022-12-29T00:41:07.847Z,1005.90
2022-12-29T00:42:07.989Z,1005.82
2022-12-29T00:43:08.180Z,1005.78
2022-12-29T00:44:08.342Z,1005.72
2022-12-29T00:45:08.537Z,1005.79
2022-12-29T00:46:11.754Z,1005.76
2022-12-29T00:47:09.897Z,1005.77
2022-12-29T00:48:09.072Z,1005.78
2022-12-29T00:49:09.242Z,1005.86
2022-12-29T00:50:09.389Z,1005.81
2022-12-29T00:51:09.557Z,1005.85
2022-12-29T00:52:09.781Z,1005.72
2022-12-29T00:53:09.979Z,1005.71
2022-12-29T00:54:10.118Z,1005.70
2022-12-29T00:55:10.296Z,1005.75
2022-12-29T00:56:10.489Z,1005.86
2022-12-29T00:57:10.688Z,1005.84
2022-12-29T00:58:10.918Z,1005.82
2022-12-29T00:59:11.043Z,1005.80
2022-12-29T01:00:11.198Z,1005.82
2022-12-29T01:01:11.448Z,1005.76
2022-12-29T01:02:11.645Z,1005.70
2022-12-29T01:03:11.786Z,1005.73
2022-12-29T01:04:11.897Z,1005.79
2022-12-29T01:05:12.101Z,1005.75
2022-12-29T01:06:12.247Z,1005.83
2022-12-29T01:07:12.521Z,1005.74
2022-12-29T01:08:12.601Z,1005.67
2022-12-29T01:09:12.770Z,1005.65
2022-12-29T01:10:12.930Z,1005.66
2022-12-29T01:11:13.121Z,1005.72
2022-12-29T01:12:13.316Z,1005.59
2022-12-29T01:13:13.480Z,1005.69
2022-12-29T01:14:13.636Z,1005.69
2022-12-29T01:15:13.800Z,1005.77
2022-12-29T01:16:14.024Z,1005.73
2022-12-29T01:17:14.115Z,1005.88
2022-12-29T01:18:14.304Z,1005.67
2022-12-29T01:19:14.536Z,1005.65
2022-12-29T01:20:14.674Z,1005.62
2022-12-29T01:21:14.852Z,1005.68
2022-12-29T01:22:15.035Z,1005.71
2022-12-29T01:23:15.203Z,1005.67
2022-12-29T01:24:15.439Z,1005.77
2022-12-29T01:25:15.649Z,1005.80
2022-12-29T01:26:15.742Z,1005.80
2022-12-29T01:27:15.932Z,1005.76
2022-12-29T01:28:18.707Z,1005.73
2022-12-29T01:29:16.296Z,1005.67
2022-12-29T01:30:16.459Z,1005.67
2022-12-29T01:31:16.723Z,1005.60
2022-12-29T01:32:16.841Z,1005.68
2022-12-29T01:33:16.994Z,1005.63
2022-12-29T01:34:17.179Z,1005.64
2022-12-29T01:35:17.326Z,1005.66
2022-12-29T01:36:17.487Z,1005.60
2022-12-29T01:37:17.669Z,1005.66
2022-12-29T01:38:17.835Z,1005.72
2022-12-29T01:39:18.039Z,1005.76
2022-12-29T01:40:18.188Z,1005.77
2022-12-29T01:41:18.369Z,1005.73
2022-12-29T01:42:18.535Z,1005.69
2022-12-29T01:43:18.724Z,1005.58
2022-12-29T01:44:18.939Z,1005.58
2022-12-29T01:45:19.081Z,1005.69
2022-12-29T01:46:19.291Z,1005.66
2022-12-29T01:47:19.479Z,1005.64
2022-12-29T01:48:19.639Z,1005.68
2022-12-29T01:49:19.850Z,1005.65
2022-12-29T01:50:19.999Z,1005.56
2022-12-29T01:51:20.171Z,1005.49
2022-12-29T01:52:20.341Z,1005.47
2022-12-29T01:53:20.535Z,1005.43
2022-12-29T01:54:20.751Z,1005.39
2022-12-29T01:55:20.895Z,1005.25
2022-12-29T01:56:21.070Z,1005.34
2022-12-29T01:57:21.274Z,1005.41
2022-12-29T01:58:21.441Z,1005.43
2022-12-29T01:59:21.641Z,1005.37
2022-12-29T02:00:21.809Z,1005.38
2022-12-29T02:01:22.245Z,1005.42
2022-12-29T02:02:22.192Z,1005.41
2022-12-29T02:03:22.367Z,1005.38
2022-12-29T02:04:22.464Z,1005.32
2022-12-29T02:05:22.679Z,1005.31
2022-12-29T02:06:22.840Z,1005.34
2022-12-29T02:07:23.006Z,1005.35
2022-12-29T02:08:23.185Z,1005.41
2022-12-29T02:09:23.379Z,1005.31
2022-12-29T02:10:23.588Z,1005.23
2022-12-29T02:11:23.745Z,1005.31
2022-12-29T02:12:23.903Z,1005.37
2022-12-29T02:13:24.101Z,1005.29
2022-12-29T02:14:24.271Z,1005.24
2022-12-29T02:15:24.481Z,1005.24
2022-12-29T02:16:24.662Z,1005.29
2022-12-29T02:17:24.814Z,1005.25
2022-12-29T02:18:24.993Z,1005.26
2022-12-29T02:19:25.179Z,1005.24
2022-12-29T02:20:25.379Z,1005.26
2022-12-29T02:21:25.526Z,1005.29
2022-12-29T02:22:25.735Z,1005.35
2022-12-29T02:23:25.896Z,1005.23
2022-12-29T02:24:26.066Z,1005.18
2022-12-29T02:25:26.268Z,1005.16
2022-12-29T02:26:26.441Z,1005.20
2022-12-29T02:27:26.652Z,1005.32
2022-12-29T02:28:26.808Z,1005.25
2022-12-29T02:29:26.999Z,1005.27
2022-12-29T02:30:27.207Z,1005.21
2022-12-29T02:31:27.403Z,1005.12
2022-12-29T02:32:27.554Z,1005.18
2022-12-29T02:33:27.739Z,1005.16
2022-12-29T02:34:27.908Z,1005.16
2022-12-29T02:35:28.112Z,1005.17
2022-12-29T02:36:28.260Z,1005.10
2022-12-29T02:37:28.451Z,1005.08
2022-12-29T02:38:28.620Z,1005.10
2022-12-29T02:39:28.814Z,1005.05
2022-12-29T02:40:29.009Z,1005.04
2022-12-29T02:41:29.188Z,1005.08
2022-12-29T02:42:29.347Z,1005.21
2022-12-29T02:43:29.482Z,1005.08
2022-12-29T02:44:29.690Z,1005.09
2022-12-29T02:45:29.868Z,1005.03
2022-12-29T02:46:30.047Z,1005.05
2022-12-29T02:47:30.287Z,1005.13
2022-12-29T02:48:30.414Z,1005.10
2022-12-29T02:49:30.613Z,1005.22
2022-12-29T02:50:30.753Z,1005.06
2022-12-29T02:51:30.952Z,1005.12
2022-12-29T02:52:31.095Z,1005.03
2022-12-29T02:53:31.282Z,1004.96
2022-12-29T02:54:31.461Z,1005.08
2022-12-29T02:55:31.676Z,1005.08
2022-12-29T02:56:31.815Z,1005.17
2022-12-29T02:57:32.008Z,1005.13
2022-12-29T02:58:32.207Z,1005.04
2022-12-29T02:59:32.380Z,1004.99
2022-12-29T03:00:32.549Z,1004.97
2022-12-29T03:01:32.817Z,1004.94
2022-12-29T03:02:33.027Z,1004.99
2022-12-29T03:03:33.164Z,1004.89
2022-12-29T03:04:33.219Z,1004.91
2022-12-29T03:05:33.423Z,1004.91
2022-12-29T03:06:33.570Z,1004.84
2022-12-29T03:07:33.795Z,1004.78
2022-12-29T03:08:33.927Z,1004.76
2022-12-29T03:09:34.120Z,1004.73
2022-12-29T03:10:34.297Z,1004.70
2022-12-29T03:11:34.487Z,1004.79
2022-12-29T03:12:34.698Z,1004.77
2022-12-29T03:13:34.835Z,1004.61
2022-12-29T03:14:35.017Z,1004.67
2022-12-29T03:15:35.212Z,1004.69
2022-12-29T03:16:35.462Z,1004.72
2022-12-29T03:17:35.594Z,1004.68
2022-12-29T03:18:35.729Z,1004.68
2022-12-29T03:19:35.926Z,1004.75
2022-12-29T03:20:36.101Z,1004.71
2022-12-29T03:21:36.282Z,1004.72
2022-12-29T03:22:36.479Z,1004.68
2022-12-29T03:23:36.677Z,1004.70
2022-12-29T03:24:36.830Z,1004.68
2022-12-29T03:25:37.022Z,1004.63
2022-12-29T03:26:37.211Z,1004.69
2022-12-29T03:27:37.446Z,1004.58
2022-12-29T03:28:37.566Z,1004.58
2022-12-29T03:29:37.721Z,1004.53
2022-12-29T03:30:37.973Z,1004.63
2022-12-29T03:31:38.111Z,1004.57
2022-12-29T03:32:38.412Z,1004.56
2022-12-29T03:33:38.435Z,1004.52
2022-12-29T03:34:38.636Z,1004.46
2022-12-29T03:35:38.798Z,1004.50
2022-12-29T03:36:38.941Z,1004.52
2022-12-29T03:37:39.146Z,1004.48
2022-12-29T03:38:39.283Z,1004.51
2022-12-29T03:39:39.540Z,1004.52
2022-12-29T03:40:39.681Z,1004.52
2022-12-29T03:41:39.852Z,1004.62
2022-12-29T03:42:39.999Z,1004.65
2022-12-29T03:43:40.213Z,1004.65
2022-12-29T03:44:40.336Z,1004.79
2022-12-29T03:45:40.532Z,1004.80
2022-12-29T03:46:40.816Z,1004.68
2022-12-29T03:47:40.874Z,1004.75
2022-12-29T03:48:41.068Z,1004.72
2022-12-29T03:49:41.256Z,1004.76
2022-12-29T03:50:41.431Z,1004.71
2022-12-29T03:51:41.586Z,1004.76
2022-12-29T03:52:41.790Z,1004.75
2022-12-29T03:53:41.972Z,1004.75
2022-12-29T03:54:42.154Z,1004.77
2022-12-29T03:55:42.299Z,1004.78
2022-12-29T03:56:42.491Z,1004.77
2022-12-29T03:57:42.670Z,1004.78
2022-12-29T03:58:42.855Z,1004.65
2022-12-29T03:59:43.073Z,1004.67
2022-12-29T04:00:43.217Z,1004.64
2022-12-29T04:01:43.559Z,1004.62
2022-12-29T04:02:43.713Z,1004.62
2022-12-29T04:03:43.824Z,1004.59
2022-12-29T04:04:43.958Z,1004.58
2022-12-29T04:05:44.133Z,1004.61
2022-12-29T04:06:44.281Z,1004.65
2022-12-29T04:07:44.456Z,1004.59
2022-12-29T04:08:44.652Z,1004.57
2022-12-29T04:09:44.825Z,1004.56
2022-12-29T04:10:44.973Z,1004.57
2022-12-29T04:11:45.175Z,1004.56
2022-12-29T04:12:45.348Z,1004.56
2022-12-29T04:13:45.504Z,1004.66
2022-12-29T04:14:45.739Z,1004.63
2022-12-29T04:15:45.874Z,1004.71
2022-12-29T04:16:46.032Z,1004.70
2022-12-29T04:17:46.224Z,1004.68
2022-12-29T04:18:46.403Z,1004.74
2022-12-29T04:19:46.624Z,1004.71
2022-12-29T04:20:46.768Z,1004.68
2022-12-29T04:21:46.954Z,1004.68
2022-12-29T04:22:47.139Z,1004.64
2022-12-29T04:23:47.324Z,1004.64
2022-12-29T04:24:47.522Z,1004.67
2022-12-29T04:25:47.698Z,1004.60
2022-12-29T04:26:47.858Z,1004.64
2022-12-29T04:27:48.039Z,1004.62
2022-12-29T04:28:48.214Z,1004.52
2022-12-29T04:29:48.433Z,1004.46
2022-12-29T04:30:48.693Z,1004.48
2022-12-29T04:31:48.778Z,1004.61
2022-12-29T04:32:48.916Z,1004.38
2022-12-29T04:33:49.111Z,1004.38
2022-12-29T04:34:49.353Z,1004.47
2022-12-29T04:35:49.472Z,1004.42
2022-12-29T04:36:49.650Z,1004.39
2022-12-29T04:37:49.856Z,1004.42
2022-12-29T04:38:50.003Z,1004.34
2022-12-29T04:39:50.204Z,1004.57
2022-12-29T04:40:50.347Z,1004.49
2022-12-29T04:41:50.565Z,1004.45
2022-12-29T04:42:50.684Z,1004.52
2022-12-29T04:43:50.945Z,1004.43
2022-12-29T04:44:51.072Z,1004.38
2022-12-29T04:45:51.272Z,1004.35
2022-12-29T04:46:51.444Z,1004.35
2022-12-29T04:47:51.629Z,1004.31
2022-12-29T04:48:51.785Z,1004.48
2022-12-29T04:49:51.946Z,1004.32
2022-12-29T04:50:52.173Z,1004.24
2022-12-29T04:51:52.303Z,1004.21
2022-12-29T04:52:52.495Z,1004.41
2022-12-29T04:53:52.683Z,1004.33
2022-12-29T04:54:52.862Z,1004.40
2022-12-29T04:55:53.091Z,1004.45
2022-12-29T04:56:53.204Z,1004.52
2022-12-29T04:57:53.352Z,1004.40
2022-12-29T04:58:53.533Z,1004.50
2022-12-29T04:59:53.724Z,1004.44
2022-12-29T05:00:53.893Z,1004.45
2022-12-29T05:01:54.109Z,1004.41
2022-12-29T05:02:54.436Z,1004.43
2022-12-29T05:03:54.424Z,1004.34
2022-12-29T05:04:54.605Z,1004.30
2022-12-29T05:05:54.778Z,1004.39
2022-12-29T05:06:54.925Z,1004.35
2022-12-29T05:07:55.111Z,1004.22
2022-12-29T05:08:55.277Z,1004.29
2022-12-29T05:09:55.506Z,1004.14
2022-12-29T05:10:55.675Z,1004.27
2022-12-29T05:11:55.837Z,1004.18
2022-12-29T05:12:55.997Z,1004.17
2022-12-29T05:13:56.204Z,1004.22
2022-12-29T05:14:56.319Z,1004.27
2022-12-29T05:15:56.556Z,1004.14
2022-12-29T05:16:56.714Z,1004.27
2022-12-29T05:17:56.881Z,1004.16
2022-12-29T05:18:57.039Z,1004.29
2022-12-29T05:19:57.193Z,1004.18
2022-12-29T05:20:57.385Z,1004.24
2022-12-29T05:21:57.568Z,1004.16
2022-12-29T05:22:57.718Z,1004.06
2022-12-29T05:23:57.923Z,1004.12
2022-12-29T05:24:58.067Z,1004.13
2022-12-29T05:25:58.268Z,1004.00
2022-12-29T05:26:58.453Z,1004.17
2022-12-29T05:27:58.600Z,1004.09
2022-12-29T05:28:58.779Z,1003.99
2022-12-29T05:29:59.008Z,1004.04
2022-12-29T05:30:59.232Z,1004.06
2022-12-29T05:31:59.323Z,1004.20
2022-12-29T05:32:59.494Z,1004.12
2022-12-29T05:33:59.698Z,1004.03
2022-12-29T05:34:59.914Z,1004.07
2022-12-29T05:36:00.051Z,1003.93
2022-12-29T05:37:00.252Z,1004.00
2022-12-29T05:38:00.432Z,1004.07
2022-12-29T05:39:00.596Z,1004.11
2022-12-29T05:40:00.819Z,1004.03
2022-12-29T05:41:00.947Z,1004.09
2022-12-29T05:42:01.127Z,1004.06
2022-12-29T05:43:01.307Z,1004.09
2022-12-29T05:44:01.495Z,1004.07
2022-12-29T05:45:01.707Z,1004.07
2022-12-29T05:46:01.861Z,1004.05
2022-12-29T05:47:02.045Z,1003.98
2022-12-29T05:48:02.183Z,1003.90
2022-12-29T05:49:02.358Z,1003.93
2022-12-29T05:50:02.562Z,1003.99
2022-12-29T05:51:02.713Z,1003.96
2022-12-29T05:52:02.920Z,1003.84
2022-12-29T05:53:03.093Z,1003.93
2022-12-29T05:54:03.281Z,1003.90
2022-12-29T05:55:03.448Z,1003.79
2022-12-29T05:56:03.625Z,1003.80
2022-12-29T05:57:03.780Z,1003.85
2022-12-29T05:58:03.943Z,1003.80
2022-12-29T05:59:04.104Z,1003.80
2022-12-29T06:00:04.364Z,1003.84
2022-12-29T06:01:04.480Z,1003.89
2022-12-29T06:02:04.938Z,1003.93
2022-12-29T06:03:05.033Z,1003.85
2022-12-29T06:04:05.031Z,1003.92
2022-12-29T06:05:05.174Z,1003.87
2022-12-29T06:06:05.380Z,1003.90
2022-12-29T06:07:05.553Z,1003.81
2022-12-29T06:08:05.695Z,1003.84
2022-12-29T06:09:05.873Z,1003.85
2022-12-29T06:10:06.060Z,1003.85
2022-12-29T06:11:06.274Z,1003.82
2022-12-29T06:12:06.436Z,1003.85
2022-12-29T06:13:06.593Z,1003.75
2022-12-29T06:14:06.755Z,1003.85
2022-12-29T06:15:06.953Z,1003.77
2022-12-29T06:16:07.135Z,1003.80
2022-12-29T06:17:07.272Z,1003.81
2022-12-29T06:18:07.425Z,1003.84
2022-12-29T06:19:07.577Z,1003.78
2022-12-29T06:20:07.762Z,1003.81
2022-12-29T06:21:07.957Z,1003.81
2022-12-29T06:22:08.107Z,1003.80
2022-12-29T06:23:08.296Z,1003.85
2022-12-29T06:24:08.454Z,1003.95
2022-12-29T06:25:08.621Z,1003.90
2022-12-29T06:26:08.837Z,1003.91
2022-12-29T06:27:09.001Z,1003.88
2022-12-29T06:28:09.148Z,1003.96
2022-12-29T06:29:09.332Z,1003.75
2022-12-29T06:30:09.506Z,1003.84
2022-12-29T06:31:09.683Z,1003.81
2022-12-29T06:32:09.886Z,1003.92
2022-12-29T06:33:10.034Z,1003.82
2022-12-29T06:34:10.194Z,1003.89
2022-12-29T06:35:10.386Z,1003.94
2022-12-29T06:36:10.599Z,1003.92
2022-12-29T06:37:10.754Z,1003.92
2022-12-29T06:38:10.947Z,1003.94
2022-12-29T06:39:11.117Z,1003.97
2022-12-29T06:40:11.270Z,1003.97
2022-12-29T06:41:11.488Z,1003.93
2022-12-29T06:42:11.631Z,1004.02
2022-12-29T06:43:11.820Z,1003.98
2022-12-29T06:44:12.016Z,1003.91
2022-12-29T06:45:12.210Z,1003.94
2022-12-29T06:46:12.508Z,1003.92
2022-12-29T06:47:12.512Z,1003.89
2022-12-29T06:48:12.691Z,1003.99
2022-12-29T06:49:12.883Z,1004.06
2022-12-29T06:50:13.073Z,1004.08
2022-12-29T06:51:13.266Z,1004.04
2022-12-29T06:52:13.551Z,1004.08
2022-12-29T06:53:13.581Z,1004.27
2022-12-29T06:54:13.743Z,1004.15
2022-12-29T06:55:13.904Z,1004.13
2022-12-29T06:56:14.094Z,1004.10
2022-12-29T06:57:14.255Z,1004.13
2022-12-29T06:58:14.407Z,1004.20
2022-12-29T06:59:14.607Z,1004.18
2022-12-29T07:00:19.389Z,1004.22
2022-12-29T07:01:16.007Z,1004.14
2022-12-29T07:02:15.326Z,1004.18
2022-12-29T07:03:15.360Z,1004.18
2022-12-29T07:04:15.520Z,1004.17
2022-12-29T07:05:15.661Z,1004.16
2022-12-29T07:06:15.812Z,1004.24
2022-12-29T07:07:16.004Z,1004.24
2022-12-29T07:08:16.169Z,1004.29
2022-12-29T07:09:16.369Z,1004.32
2022-12-29T07:10:16.526Z,1004.24
2022-12-29T07:11:16.710Z,1004.24
2022-12-29T07:12:16.893Z,1004.23
2022-12-29T07:13:17.077Z,1004.20
2022-12-29T07:14:17.249Z,1004.19
2022-12-29T07:15:17.426Z,1004.17
2022-12-29T07:16:17.660Z,1004.19
2022-12-29T07:17:17.767Z,1004.21
2022-12-29T07:18:17.933Z,1004.21
2022-12-29T07:19:18.141Z,1004.23
2022-12-29T07:20:23.196Z,1004.24
2022-12-29T07:21:19.461Z,1004.24
2022-12-29T07:22:18.613Z,1004.19
2022-12-29T07:23:18.799Z,1004.28
2022-12-29T07:24:19.003Z,1004.28
2022-12-29T07:25:19.128Z,1004.25
2022-12-29T07:26:19.288Z,1004.29
2022-12-29T07:27:19.474Z,1004.25
2022-12-29T07:28:19.652Z,1004.25
2022-12-29T07:29:19.833Z,1004.22
2022-12-29T07:30:20.004Z,1004.12
2022-12-29T07:31:20.250Z,1004.14
2022-12-29T07:32:20.378Z,1004.14
2022-12-29T07:33:20.591Z,1004.21
2022-12-29T07:34:20.716Z,1004.24
2022-12-29T07:35:20.905Z,1004.20
2022-12-29T07:36:21.068Z,1004.18
2022-12-29T07:37:21.251Z,1004.18
2022-12-29T07:38:21.436Z,1004.15
2022-12-29T07:39:21.583Z,1004.13
2022-12-29T07:40:21.761Z,1004.13
2022-12-29T07:41:21.942Z,1004.08
2022-12-29T07:42:22.076Z,1004.10
2022-12-29T07:43:22.281Z,1004.09
2022-12-29T07:44:22.446Z,1004.10
2022-12-29T07:45:22.641Z,1004.16
2022-12-29T07:46:53.767Z,1004.14
2022-12-29T07:47:23.983Z,1004.13
2022-12-29T07:48:23.119Z,1004.11
2022-12-29T07:49:23.343Z,1004.11
2022-12-29T07:50:23.491Z,1004.10
2022-12-29T07:51:23.658Z,1004.10
2022-12-29T07:52:23.812Z,1004.16
2022-12-29T07:53:24.020Z,1004.16
2022-12-29T07:54:24.296Z,1004.13
2022-12-29T07:55:24.348Z,1004.09
2022-12-29T07:56:24.504Z,1004.11
2022-12-29T07:57:31.347Z,1004.13
2022-12-29T07:58:25.888Z,1004.17
2022-12-29T07:59:25.056Z,1004.11
2022-12-29T08:00:25.229Z,1004.15
2022-12-29T08:01:25.650Z,1004.05
2022-12-29T08:02:25.836Z,1004.05
2022-12-29T08:03:25.811Z,1004.03
2022-12-29T08:04:25.927Z,1003.98
2022-12-29T08:05:26.100Z,1004.01
2022-12-29T08:06:26.255Z,1004.03
2022-12-29T08:07:26.420Z,1003.95
2022-12-29T08:08:26.602Z,1003.93
2022-12-29T08:09:26.778Z,1003.86
2022-12-29T08:10:26.972Z,1003.82
2022-12-29T08:11:27.136Z,1003.85
2022-12-29T08:12:27.301Z,1003.86
2022-12-29T08:13:27.502Z,1004.00
2022-12-29T08:14:27.620Z,1004.00
2022-12-29T08:15:32.332Z,1003.97
2022-12-29T08:16:29.000Z,1003.98
2022-12-29T08:17:28.126Z,1004.02
2022-12-29T08:18:28.299Z,1004.04
2022-12-29T08:19:28.469Z,1003.97
2022-12-29T08:20:28.624Z,1004.02
2022-12-29T08:21:28.784Z,1004.03
2022-12-29T08:22:28.941Z,1003.99
2022-12-29T08:23:29.191Z,1003.93
2022-12-29T08:24:29.297Z,1003.93
2022-12-29T08:25:29.467Z,1003.98
2022-12-29T08:26:29.637Z,1003.98
2022-12-29T08:27:29.794Z,1004.01
2022-12-29T08:28:29.966Z,1003.96
2022-12-29T08:29:30.119Z,1003.93
2022-12-29T08:30:30.287Z,1003.89
2022-12-29T08:31:30.519Z,1003.93
2022-12-29T08:32:30.646Z,1003.97
2022-12-29T08:33:30.814Z,1003.93
2022-12-29T08:34:31.009Z,1004.03
2022-12-29T08:35:31.174Z,1004.01
2022-12-29T08:36:31.341Z,1003.99
2022-12-29T08:37:31.668Z,1004.13
2022-12-29T08:38:31.713Z,1004.09
2022-12-29T08:39:31.903Z,1004.05
2022-12-29T08:40:32.043Z,1004.03
2022-12-29T08:41:32.245Z,1004.13
2022-12-29T08:42:32.391Z,1004.10
2022-12-29T08:43:32.559Z,1004.08
2022-12-29T08:44:32.740Z,1004.05
2022-12-29T08:45:32.926Z,1004.04
2022-12-29T08:46:33.111Z,1003.96
2022-12-29T08:47:33.357Z,1004.01
2022-12-29T08:48:33.446Z,1004.01
2022-12-29T08:49:33.614Z,1004.01
2022-12-29T08:50:33.782Z,1004.09
2022-12-29T08:51:33.950Z,1004.10
2022-12-29T08:52:34.116Z,1004.09
2022-12-29T08:53:34.383Z,1003.96
2022-12-29T08:54:34.508Z,1004.03
2022-12-29T08:55:34.655Z,1003.95
2022-12-29T08:56:34.823Z,1003.93
2022-12-29T08:57:35.004Z,1003.97
2022-12-29T08:58:35.155Z,1003.90
2022-12-29T08:59:35.357Z,1003.80
2022-12-29T09:00:35.508Z,1003.77
2022-12-29T09:01:35.843Z,1003.88
2022-12-29T09:02:35.962Z,1003.74
2022-12-29T09:04:37.333Z,1003.91
2022-12-29T09:05:36.352Z,1003.90
2022-12-29T09:06:40.126Z,1003.88
2022-12-29T09:07:36.693Z,1003.89
2022-12-29T09:08:36.851Z,1003.84
2022-12-29T09:09:37.011Z,1003.94
2022-12-29T09:10:37.185Z,1003.78
2022-12-29T09:11:37.382Z,1003.84
2022-12-29T09:12:37.533Z,1003.80
2022-12-29T09:13:37.701Z,1003.75
2022-12-29T09:14:37.909Z,1003.69
2022-12-29T09:15:38.080Z,1003.81
2022-12-29T09:16:38.381Z,1003.80
2022-12-29T09:17:38.386Z,1003.85
2022-12-29T09:18:38.547Z,1003.82
2022-12-29T09:19:38.742Z,1003.86
2022-12-29T09:20:38.916Z,1003.85
2022-12-29T09:21:39.078Z,1003.78
2022-12-29T09:22:39.250Z,1003.75
2022-12-29T09:23:39.424Z,1003.68
2022-12-29T09:24:39.593Z,1003.73
2022-12-29T09:25:39.764Z,1003.83
2022-12-29T09:26:46.705Z,1003.72
2022-12-29T09:27:41.115Z,1003.78
2022-12-29T09:28:40.288Z,1003.68
2022-12-29T09:29:40.456Z,1003.76
2022-12-29T09:30:40.632Z,1003.68
2022-12-29T09:31:40.827Z,1003.75
2022-12-29T09:32:45.048Z,1003.76
2022-12-29T09:33:41.139Z,1003.64
2022-12-29T09:34:41.289Z,1003.63
2022-12-29T09:35:41.474Z,1003.61
2022-12-29T09:36:41.642Z,1003.78
2022-12-29T09:37:41.811Z,1003.69
2022-12-29T09:38:41.974Z,1003.70
2022-12-29T09:39:42.159Z,1003.68
2022-12-29T09:40:42.318Z,1003.70
2022-12-29T09:41:42.489Z,1003.72
2022-12-29T09:42:42.649Z,1003.58
2022-12-29T09:43:42.816Z,1003.54
2022-12-29T09:44:42.976Z,1003.52
2022-12-29T09:45:43.159Z,1003.55
2022-12-29T09:46:43.376Z,1003.53
2022-12-29T09:47:43.507Z,1003.53
2022-12-29T09:48:43.679Z,1003.61
2022-12-29T09:49:43.862Z,1003.60
2022-12-29T09:50:44.031Z,1003.74
2022-12-29T09:51:44.195Z,1003.68
2022-12-29T09:52:44.354Z,1003.62
2022-12-29T09:53:44.546Z,1003.73
2022-12-29T09:54:49.719Z,1003.59
2022-12-29T09:55:45.912Z,1003.85
2022-12-29T09:56:45.090Z,1003.76
2022-12-29T09:57:45.238Z,1003.62
2022-12-29T09:58:45.409Z,1003.71
2022-12-29T09:59:45.576Z,1003.75
2022-12-29T10:00:51.224Z,1003.65
2022-12-29T10:01:47.072Z,1003.61
2022-12-29T10:02:46.242Z,1003.61
2022-12-29T10:03:46.282Z,1003.72
2022-12-29T10:04:46.445Z,1003.72
2022-12-29T10:05:46.608Z,1003.73
2022-12-29T10:07:19.479Z,1003.65
2022-12-29T10:07:47.985Z,1003.73
2022-12-29T10:08:47.119Z,1003.65
2022-12-29T10:09:47.288Z,1003.74
2022-12-29T10:10:47.448Z,1003.51
2022-12-29T10:11:47.811Z,1003.49
2022-12-29T10:12:47.800Z,1003.56
2022-12-29T10:13:47.972Z,1003.59
2022-12-29T10:14:48.140Z,1003.67
2022-12-29T10:15:48.305Z,1003.55
2022-12-29T10:16:48.516Z,1003.84
2022-12-29T10:17:48.658Z,1003.59
2022-12-29T10:18:48.822Z,1003.58
2022-12-29T10:19:48.976Z,1003.73
2022-12-29T10:20:49.281Z,1003.76
2022-12-29T10:21:49.323Z,1003.68
2022-12-29T10:22:49.583Z,1003.73
2022-12-29T10:23:49.673Z,1003.73
2022-12-29T10:24:49.820Z,1003.62
2022-12-29T10:25:49.978Z,1003.73
2022-12-29T10:26:50.183Z,1003.55
2022-12-29T10:27:50.309Z,1003.60
2022-12-29T10:28:50.465Z,1003.58
2022-12-29T10:29:50.626Z,1003.65
2022-12-29T10:30:50.796Z,1003.53
2022-12-29T10:31:51.152Z,1003.61
2022-12-29T10:32:51.139Z,1003.57
2022-12-29T10:33:51.309Z,1003.68
2022-12-29T10:34:51.494Z,1003.71
2022-12-29T10:35:51.630Z,1003.68
2022-12-29T10:36:51.830Z,1003.68
2022-12-29T10:37:51.948Z,1003.56
2022-12-29T10:38:52.146Z,1003.66
2022-12-29T10:39:52.296Z,1003.63
2022-12-29T10:40:52.461Z,1003.62
2022-12-29T10:41:52.665Z,1003.69
2022-12-29T10:42:52.785Z,1003.53
2022-12-29T10:43:52.950Z,1003.72
2022-12-29T10:44:53.109Z,1003.56
2022-12-29T10:45:53.300Z,1003.51
2022-12-29T10:46:53.440Z,1003.42
2022-12-29T10:47:53.601Z,1003.70
2022-12-29T10:48:53.803Z,1003.66
2022-12-29T10:49:53.955Z,1003.66
2022-12-29T10:50:58.529Z,1003.79
2022-12-29T10:51:55.342Z,1003.67
2022-12-29T10:52:54.527Z,1003.59
2022-12-29T10:53:54.713Z,1003.71
2022-12-29T10:54:54.860Z,1003.75
2022-12-29T10:55:55.003Z,1003.73
2022-12-29T10:56:55.224Z,1003.64
2022-12-29T10:57:55.375Z,1003.68
2022-12-29T10:58:55.535Z,1003.70
2022-12-29T10:59:55.711Z,1003.73
2022-12-29T11:00:55.948Z,1003.68
2022-12-29T11:01:56.141Z,1003.69
2022-12-29T11:02:56.417Z,1003.68
2022-12-29T11:03:56.375Z,1003.77
2022-12-29T11:04:56.542Z,1003.70
2022-12-29T11:05:56.710Z,1003.76
2022-12-29T11:06:56.937Z,1003.70
2022-12-29T11:07:57.052Z,1003.74
2022-12-29T11:08:57.224Z,1003.69
2022-12-29T11:09:57.396Z,1003.77
2022-12-29T11:10:57.549Z,1003.70
2022-12-29T11:11:57.758Z,1003.80
2022-12-29T11:12:57.894Z,1003.87
2022-12-29T11:13:58.051Z,1003.67
2022-12-29T11:14:58.243Z,1003.60
2022-12-29T11:15:58.397Z,1003.61
2022-12-29T11:16:58.591Z,1003.71
2022-12-29T11:17:58.741Z,1003.81
2022-12-29T11:18:58.901Z,1003.81
2022-12-29T11:19:59.055Z,1003.76
2022-12-29T11:20:59.250Z,1003.74
2022-12-29T11:21:59.392Z,1003.73
2022-12-29T11:22:59.590Z,1003.82
2022-12-29T11:23:59.769Z,1003.76
2022-12-29T11:24:59.961Z,1003.85
2022-12-29T11:26:00.125Z,1003.98
2022-12-29T11:27:00.302Z,1003.94
2022-12-29T11:28:00.460Z,1003.86
2022-12-29T11:29:00.639Z,1003.85
2022-12-29T11:30:00.844Z,1003.92
2022-12-29T11:31:01.001Z,1003.93
2022-12-29T11:32:01.327Z,1003.83
2022-12-29T11:33:01.375Z,1003.89
2022-12-29T11:34:01.564Z,1003.81
2022-12-29T11:35:01.767Z,1003.78
2022-12-29T11:36:01.911Z,1003.83
2022-12-29T11:37:02.091Z,1003.82
2022-12-29T11:38:02.281Z,1003.80
2022-12-29T11:39:02.467Z,1003.80
2022-12-29T11:40:02.655Z,1003.94
2022-12-29T11:41:02.817Z,1003.87
2022-12-29T11:42:02.988Z,1003.87
2022-12-29T11:43:03.174Z,1003.87
2022-12-29T11:44:03.378Z,1003.95
2022-12-29T11:45:08.988Z,1004.00
2022-12-29T11:46:04.774Z,1004.01
2022-12-29T11:47:03.883Z,1004.08
2022-12-29T11:48:04.057Z,1004.05
2022-12-29T11:49:04.207Z,1004.06
2022-12-29T11:50:04.430Z,1004.12
2022-12-29T11:51:04.551Z,1004.18
2022-12-29T11:52:04.729Z,1004.42
2022-12-29T11:53:04.881Z,1004.24
2022-12-29T11:54:05.051Z,1004.08
2022-12-29T11:55:05.232Z,1004.02
2022-12-29T11:56:05.423Z,1004.01
2022-12-29T11:57:05.568Z,1004.16
2022-12-29T11:58:05.736Z,1004.12
2022-12-29T11:59:05.900Z,1004.14
2022-12-29T12:00:06.074Z,1004.07
2022-12-29T12:01:06.254Z,1004.16
2022-12-29T12:02:06.493Z,1004.12
2022-12-29T12:03:06.740Z,1004.11
2022-12-29T12:04:06.775Z,1004.04
2022-12-29T12:05:06.972Z,1004.25
2022-12-29T12:06:07.112Z,1004.17
2022-12-29T12:07:07.266Z,1004.13
2022-12-29T12:08:07.439Z,1004.04